createdAt,value
2022-12-04T00:00:35.672Z,2.88
2022-12-04T00:03:03.353Z,2.81
2022-12-04T00:05:31.109Z,2.62
2022-12-04T00:08:00.225Z,2.57
2022-12-04T00:10:28.106Z,2.62
2022-12-04T00:12:55.751Z,2.75
2022-12-04T00:15:25.606Z,3.02
2022-12-04T00:17:54.345Z,2.87
2022-12-04T00:20:22.897Z,3.01
2022-12-04T00:22:50.793Z,2.89
2022-12-04T00:25:19.870Z,2.88
2022-12-04T00:27:47.451Z,2.70
2022-12-04T00:30:15.324Z,2.72
2022-12-04T00:32:42.980Z,2.72
2022-12-04T00:35:10.852Z,3.00
2022-12-04T00:37:38.713Z,2.98
2022-12-04T00:40:08.049Z,2.66
2022-12-04T00:42:37.041Z,2.75
2022-12-04T00:45:05.227Z,2.78
2022-12-04T00:47:32.845Z,2.63
2022-12-04T00:50:00.487Z,2.62
2022-12-04T00:52:28.260Z,2.55
2022-12-04T00:54:56.640Z,2.82
2022-12-04T00:57:24.200Z,2.65
2022-12-04T00:59:53.565Z,2.76
2022-12-04T01:02:21.447Z,2.66
2022-12-04T01:04:49.118Z,2.67
2022-12-04T01:07:16.764Z,2.36
2022-12-04T01:09:44.406Z,2.18
2022-12-04T01:12:16.154Z,2.35
2022-12-04T01:14:46.744Z,2.58
2022-12-04T01:17:15.793Z,2.34
2022-12-04T01:19:43.652Z,2.57
2022-12-04T01:22:11.503Z,2.65
2022-12-04T01:24:39.114Z,2.53
2022-12-04T01:27:06.707Z,2.48
2022-12-04T01:29:34.423Z,2.35
2022-12-04T01:32:02.142Z,2.39
2022-12-04T01:34:31.411Z,2.64
2022-12-04T01:36:59.055Z,2.67
2022-12-04T01:39:26.671Z,2.58
2022-12-04T01:41:54.281Z,2.59
2022-12-04T01:44:23.592Z,2.62
2022-12-04T01:46:52.959Z,2.33
2022-12-04T01:49:24.653Z,2.36
2022-12-04T01:51:57.128Z,2.62
2022-12-04T01:54:29.045Z,2.73
2022-12-04T01:57:01.305Z,2.56
2022-12-04T01:59:33.247Z,2.88
2022-12-04T02:02:05.167Z,2.76
2022-12-04T02:04:35.316Z,2.70
2022-12-04T02:07:05.057Z,2.79
2022-12-04T02:09:34.044Z,2.84
2022-12-04T02:12:08.674Z,2.71
2022-12-04T02:14:45.591Z,2.83
2022-12-04T02:17:21.420Z,2.81
2022-12-04T02:20:14.160Z,2.68
2022-12-04T02:23:20.845Z,2.65
2022-12-04T02:25:58.282Z,2.29
2022-12-04T02:28:33.305Z,2.50
2022-12-04T02:31:03.262Z,2.58
2022-12-04T02:33:35.956Z,2.55
2022-12-04T02:36:08.101Z,2.73
2022-12-04T02:38:39.903Z,2.67
2022-12-04T02:41:12.420Z,2.37
2022-12-04T02:43:46.341Z,2.42
2022-12-04T02:46:19.715Z,2.42
2022-12-04T02:48:50.441Z,2.30
2022-12-04T02:51:21.378Z,2.51
2022-12-04T02:53:53.784Z,2.33
2022-12-04T02:56:27.522Z,2.49
2022-12-04T02:58:59.840Z,2.57
2022-12-04T03:01:31.207Z,2.25
2022-12-04T03:04:01.756Z,2.38
2022-12-04T03:06:33.536Z,2.42
2022-12-04T03:09:07.697Z,2.36
2022-12-04T03:11:37.141Z,2.42
2022-12-04T03:14:14.356Z,2.48
2022-12-04T03:16:43.677Z,2.58
2022-12-04T03:19:17.549Z,2.65
2022-12-04T03:21:49.537Z,2.27
2022-12-04T03:24:20.994Z,2.52
2022-12-04T03:26:52.269Z,2.49
2022-12-04T03:29:24.472Z,2.54
2022-12-04T03:31:58.775Z,2.49
2022-12-04T03:34:35.047Z,2.33
2022-12-04T03:37:09.558Z,2.42
2022-12-04T03:39:39.836Z,2.19
2022-12-04T03:42:12.848Z,2.30
2022-12-04T03:44:47.476Z,2.38
2022-12-04T03:47:20.333Z,2.46
2022-12-04T03:49:56.313Z,2.59
2022-12-04T03:52:28.301Z,2.88
2022-12-04T03:55:01.891Z,2.54
2022-12-04T03:57:34.380Z,2.27
2022-12-04T04:00:08.540Z,2.28
2022-12-04T04:02:40.970Z,2.38
2022-12-04T04:05:10.949Z,2.23
2022-12-04T04:07:43.507Z,2.21
2022-12-04T04:10:16.709Z,2.30
2022-12-04T04:13:13.801Z,2.39
2022-12-04T04:16:05.190Z,2.47
2022-12-04T04:18:47.518Z,2.34
2022-12-04T04:21:37.659Z,2.37
2022-12-04T04:24:16.092Z,2.42
2022-12-04T04:26:46.972Z,2.53
2022-12-04T04:29:14.978Z,2.54
2022-12-04T04:31:51.300Z,2.69
2022-12-04T04:34:23.176Z,2.48
2022-12-04T04:36:56.594Z,2.68
2022-12-04T04:39:34.120Z,2.55
2022-12-04T04:42:05.920Z,2.49
2022-12-04T04:44:41.015Z,2.52
2022-12-04T04:47:17.325Z,2.67
2022-12-04T04:49:47.234Z,2.74
2022-12-04T04:52:15.875Z,2.61
2022-12-04T04:54:44.308Z,2.68
2022-12-04T04:57:12.151Z,2.73
2022-12-04T04:59:39.878Z,2.54
2022-12-04T05:02:07.547Z,2.25
2022-12-04T05:04:36.602Z,2.64
2022-12-04T05:07:04.211Z,2.52
2022-12-04T05:09:34.604Z,2.63
2022-12-04T05:12:04.750Z,2.69
2022-12-04T05:14:32.401Z,2.76
2022-12-04T05:17:01.983Z,2.73
2022-12-04T05:19:50.783Z,2.85
2022-12-04T05:22:20.049Z,2.69
2022-12-04T05:24:47.700Z,2.79
2022-12-04T05:27:15.546Z,2.63
2022-12-04T05:29:43.281Z,2.50
2022-12-04T05:32:10.962Z,2.61
2022-12-04T05:34:38.607Z,2.61
2022-12-04T05:37:06.370Z,2.61
2022-12-04T05:39:35.805Z,2.14
2022-12-04T05:42:03.479Z,2.64
2022-12-04T05:44:31.104Z,2.65
2022-12-04T05:46:58.847Z,2.69
2022-12-04T05:49:26.668Z,2.74
2022-12-04T05:51:54.321Z,2.69
2022-12-04T05:54:22.056Z,2.79
2022-12-04T05:56:51.256Z,2.92
2022-12-04T05:59:19.581Z,2.82
2022-12-04T06:01:47.701Z,2.34
2022-12-04T06:04:15.384Z,2.73
2022-12-04T06:06:43.048Z,2.79
2022-12-04T06:09:11.810Z,2.65
2022-12-04T06:11:42.203Z,2.95
2022-12-04T06:14:14.672Z,2.86
2022-12-04T06:16:44.681Z,3.05
2022-12-04T06:19:15.964Z,2.69
2022-12-04T06:21:45.818Z,2.75
2022-12-04T06:24:15.804Z,2.94
2022-12-04T06:27:03.981Z,2.77
2022-12-04T06:29:33.228Z,3.06
2022-12-04T06:32:02.060Z,2.98
2022-12-04T06:34:30.013Z,2.93
2022-12-04T06:36:57.728Z,2.87
2022-12-04T06:39:25.370Z,2.84
2022-12-04T06:41:53.020Z,2.98
2022-12-04T06:44:20.699Z,2.56
2022-12-04T06:46:50.359Z,2.33
2022-12-04T06:49:22.756Z,2.36
2022-12-04T06:51:50.429Z,2.69
2022-12-04T06:54:18.026Z,2.54
2022-12-04T06:56:45.614Z,2.86
2022-12-04T06:59:13.649Z,3.03
2022-12-04T07:01:41.334Z,3.01
2022-12-04T07:04:10.300Z,3.07
2022-12-04T07:06:39.929Z,3.12
2022-12-04T07:09:11.089Z,3.21
2022-12-04T07:11:39.538Z,3.24
2022-12-04T07:14:07.274Z,2.99
2022-12-04T07:16:40.320Z,3.05
2022-12-04T07:19:10.450Z,2.65
2022-12-04T07:21:38.112Z,2.59
2022-12-04T07:24:05.910Z,2.78
2022-12-04T07:26:33.555Z,3.11
2022-12-04T07:29:02.439Z,2.80
2022-12-04T07:31:30.639Z,2.71
2022-12-04T07:33:58.914Z,2.98
2022-12-04T07:36:28.602Z,3.18
2022-12-04T07:38:57.269Z,3.18
2022-12-04T07:41:25.337Z,3.03
2022-12-04T07:43:53.047Z,3.24
2022-12-04T07:46:22.898Z,2.90
2022-12-04T07:48:50.717Z,3.11
2022-12-04T07:51:19.874Z,3.34
2022-12-04T07:53:49.820Z,2.77
2022-12-04T07:56:18.216Z,3.08
2022-12-04T07:58:45.870Z,3.31
2022-12-04T08:01:16.169Z,3.19
2022-12-04T08:03:48.596Z,2.85
2022-12-04T08:06:17.752Z,2.69
2022-12-04T08:08:45.411Z,2.98
2022-12-04T08:11:16.934Z,2.84
2022-12-04T08:13:44.930Z,2.79
2022-12-04T08:16:13.293Z,3.08
2022-12-04T08:18:41.572Z,3.16
2022-12-04T08:21:11.679Z,2.66
2022-12-04T08:23:42.864Z,3.10
2022-12-04T08:26:11.133Z,3.01
2022-12-04T08:28:40.656Z,2.81
2022-12-04T08:31:11.027Z,2.97
2022-12-04T08:33:38.744Z,2.65
2022-12-04T08:36:08.551Z,2.77
2022-12-04T08:38:36.325Z,3.00
2022-12-04T08:41:06.243Z,3.10
2022-12-04T08:43:34.312Z,3.13
2022-12-04T08:46:04.984Z,2.93
2022-12-04T08:48:33.165Z,3.12
2022-12-04T08:51:01.468Z,3.15
2022-12-04T08:53:29.080Z,2.86
2022-12-04T08:55:56.922Z,2.72
2022-12-04T08:58:24.695Z,2.72
2022-12-04T09:00:52.321Z,2.88
2022-12-04T09:03:27.521Z,2.38
2022-12-04T09:05:59.946Z,2.79
2022-12-04T09:08:27.550Z,2.57
2022-12-04T09:10:55.349Z,2.79
2022-12-04T09:13:22.964Z,2.76
2022-12-04T09:15:50.663Z,2.90
2022-12-04T09:18:18.369Z,2.99
2022-12-04T09:20:56.509Z,2.69
2022-12-04T09:23:24.178Z,2.68
2022-12-04T09:25:52.240Z,2.24
2022-12-04T09:28:20.161Z,2.82
2022-12-04T09:30:57.502Z,2.32
2022-12-04T09:33:25.282Z,2.26
2022-12-04T09:35:54.418Z,2.60
2022-12-04T09:38:22.227Z,2.72
2022-12-04T09:40:58.967Z,2.81
2022-12-04T09:43:32.328Z,2.90
2022-12-04T09:46:05.590Z,2.96
2022-12-04T09:48:36.805Z,2.86
2022-12-04T09:51:07.888Z,2.78
2022-12-04T09:53:44.985Z,2.94
2022-12-04T09:56:14.959Z,2.76
2022-12-04T09:58:48.181Z,3.08
2022-12-04T10:01:23.601Z,2.60
2022-12-04T10:03:51.638Z,2.94
2022-12-04T10:06:25.248Z,3.00
2022-12-04T10:09:01.207Z,2.88
2022-12-04T10:11:36.395Z,2.71
2022-12-04T10:14:18.142Z,2.36
2022-12-04T10:17:14.566Z,2.42
2022-12-04T10:19:50.931Z,2.49
2022-12-04T10:22:26.809Z,2.61
2022-12-04T10:24:57.217Z,2.29
2022-12-04T10:27:29.084Z,2.68
2022-12-04T10:30:00.217Z,2.72
2022-12-04T10:32:32.911Z,2.82
2022-12-04T10:35:16.333Z,2.41
2022-12-04T10:37:46.824Z,2.62
2022-12-04T10:40:23.412Z,2.71
2022-12-04T10:42:57.491Z,2.84
2022-12-04T10:45:25.256Z,3.04
2022-12-04T10:47:54.381Z,2.89
2022-12-04T10:50:25.052Z,2.68
2022-12-04T10:52:54.076Z,2.58
2022-12-04T10:55:33.416Z,2.51
2022-12-04T10:58:02.622Z,2.71
2022-12-04T11:00:32.555Z,2.80
2022-12-04T11:03:02.004Z,3.09
2022-12-04T11:05:33.583Z,2.92
2022-12-04T11:08:05.907Z,2.40
2022-12-04T11:10:37.642Z,2.32
2022-12-04T11:13:07.253Z,2.60
2022-12-04T11:15:37.315Z,3.20
2022-12-04T11:18:09.108Z,3.16
2022-12-04T11:20:37.111Z,3.05
2022-12-04T11:23:06.487Z,3.20
2022-12-04T11:25:38.946Z,3.53
2022-12-04T11:28:06.837Z,3.69
2022-12-04T11:30:38.068Z,3.76
2022-12-04T11:33:16.116Z,3.80
2022-12-04T11:35:44.111Z,3.70
2022-12-04T11:38:17.392Z,3.51
2022-12-04T11:40:48.994Z,3.48
2022-12-04T11:43:19.571Z,2.63
2022-12-04T11:45:55.728Z,2.60
2022-12-04T11:48:23.605Z,2.76
2022-12-04T11:50:58.526Z,3.22
2022-12-04T11:53:40.653Z,3.07
2022-12-04T11:56:23.665Z,3.27
2022-12-04T11:59:24.277Z,3.31
2022-12-04T12:01:58.741Z,2.88
2022-12-04T12:05:08.121Z,2.81
2022-12-04T12:07:49.834Z,2.76
2022-12-04T12:10:27.110Z,2.82
2022-12-04T12:13:06.722Z,2.59
2022-12-04T12:15:42.834Z,2.95
2022-12-04T12:18:32.398Z,2.89
2022-12-04T12:21:08.832Z,2.77
2022-12-04T12:23:51.731Z,2.59
2022-12-04T12:26:21.022Z,2.61
2022-12-04T12:29:10.131Z,2.90
2022-12-04T12:31:53.457Z,2.88
2022-12-04T12:34:30.651Z,2.75
2022-12-04T12:37:01.146Z,3.03
2022-12-04T12:39:37.962Z,2.99
2022-12-04T12:42:13.526Z,2.85
2022-12-04T12:44:47.750Z,2.47
2022-12-04T12:47:20.160Z,2.73
2022-12-04T12:49:54.087Z,2.66
2022-12-04T12:52:39.306Z,2.52
2022-12-04T12:55:17.065Z,2.58
2022-12-04T12:57:50.819Z,2.72
2022-12-04T13:00:21.547Z,2.76
2022-12-04T13:02:55.313Z,2.34
2022-12-04T13:05:28.855Z,2.26
2022-12-04T13:08:05.023Z,2.66
2022-12-04T13:10:37.331Z,2.54
2022-12-04T13:13:11.990Z,2.60
2022-12-04T13:15:44.582Z,2.66
2022-12-04T13:18:24.164Z,2.65
2022-12-04T13:20:56.221Z,2.71
2022-12-04T13:23:40.228Z,2.94
2022-12-04T13:26:16.288Z,3.23
2022-12-04T13:28:54.557Z,3.07
2022-12-04T13:31:33.500Z,2.48
2022-12-04T13:34:34.958Z,2.55
2022-12-04T13:37:23.234Z,2.57
2022-12-04T13:40:29.939Z,2.72
2022-12-04T13:43:21.248Z,2.61
2022-12-04T13:45:53.026Z,2.77
2022-12-04T13:48:36.757Z,2.67
2022-12-04T13:51:08.501Z,2.68
2022-12-04T13:53:39.743Z,2.70
2022-12-04T13:56:13.509Z,2.72
2022-12-04T13:58:43.324Z,2.63
2022-12-04T14:01:25.971Z,2.77
2022-12-04T14:03:57.395Z,2.52
2022-12-04T14:06:27.865Z,2.54
2022-12-04T14:08:59.668Z,2.88
2022-12-04T14:11:29.436Z,2.92
2022-12-04T14:14:03.627Z,2.72
2022-12-04T14:16:41.234Z,2.72
2022-12-04T14:19:09.866Z,2.62
2022-12-04T14:21:41.613Z,2.43
2022-12-04T14:24:17.945Z,2.49
2022-12-04T14:27:10.540Z,2.39
2022-12-04T14:29:48.483Z,2.58
2022-12-04T14:32:22.585Z,2.53
2022-12-04T14:34:51.020Z,2.58
2022-12-04T14:37:26.170Z,2.55
2022-12-04T14:39:54.445Z,2.53
2022-12-04T14:42:26.638Z,2.40
2022-12-04T14:44:56.921Z,2.36
2022-12-04T14:47:39.715Z,2.44
2022-12-04T14:50:20.619Z,2.56
2022-12-04T14:52:54.135Z,2.60
2022-12-04T14:55:31.827Z,2.66
2022-12-04T14:58:21.691Z,2.81
2022-12-04T15:00:53.756Z,2.84
2022-12-04T15:03:23.710Z,2.63
2022-12-04T15:05:52.125Z,2.78
2022-12-04T15:08:20.275Z,2.82
2022-12-04T15:11:05.503Z,2.80
2022-12-04T15:13:34.725Z,2.76
2022-12-04T15:16:10.006Z,2.71
2022-12-04T15:18:39.819Z,2.64
2022-12-04T15:21:11.543Z,2.71
2022-12-04T15:23:41.797Z,2.54
2022-12-04T15:26:14.306Z,2.39
2022-12-04T15:28:46.353Z,2.40
2022-12-04T15:31:18.325Z,2.52
2022-12-04T15:33:50.303Z,2.41
2022-12-04T15:36:21.289Z,2.56
2022-12-04T15:38:51.145Z,2.62
2022-12-04T15:41:30.420Z,2.59
2022-12-04T15:43:58.249Z,2.91
2022-12-04T15:46:31.081Z,2.50
2022-12-04T15:49:18.495Z,2.51
2022-12-04T15:51:47.615Z,2.49
2022-12-04T15:54:22.256Z,2.66
2022-12-04T15:56:59.568Z,2.53
2022-12-04T15:59:29.434Z,2.59
2022-12-04T16:02:01.893Z,2.68
2022-12-04T16:04:35.397Z,2.70
2022-12-04T16:07:03.279Z,2.81
2022-12-04T16:09:30.972Z,2.59
2022-12-04T16:12:00.776Z,2.91
2022-12-04T16:14:28.840Z,2.90
2022-12-04T16:17:06.002Z,2.74
2022-12-04T16:19:38.115Z,2.64
2022-12-04T16:22:13.010Z,2.74
2022-12-04T16:24:40.891Z,2.50
2022-12-04T16:27:13.879Z,2.70
2022-12-04T16:29:41.615Z,2.69
2022-12-04T16:32:12.390Z,2.43
2022-12-04T16:34:41.644Z,2.49
2022-12-04T16:37:14.226Z,2.76
2022-12-04T16:39:41.935Z,2.47
2022-12-04T16:42:19.701Z,2.72
2022-12-04T16:44:47.440Z,2.43
2022-12-04T16:47:16.204Z,2.59
2022-12-04T16:49:46.315Z,2.57
2022-12-04T16:52:14.461Z,2.83
2022-12-04T16:54:42.369Z,2.56
2022-12-04T16:57:10.436Z,2.47
2022-12-04T16:59:38.487Z,2.62
2022-12-04T17:02:14.816Z,2.64
2022-12-04T17:04:42.461Z,2.66
2022-12-04T17:07:11.464Z,2.79
2022-12-04T17:09:39.062Z,2.69
2022-12-04T17:12:06.848Z,2.81
2022-12-04T17:14:34.431Z,2.65
2022-12-04T17:17:02.051Z,2.58
2022-12-04T17:19:29.683Z,2.60
2022-12-04T17:21:58.200Z,2.78
2022-12-04T17:24:27.191Z,2.68
2022-12-04T17:26:54.860Z,2.47
2022-12-04T17:29:22.436Z,2.82
2022-12-04T17:31:50.140Z,2.90
2022-12-04T17:34:17.832Z,2.68
2022-12-04T17:36:45.413Z,2.68
2022-12-04T17:39:13.472Z,2.55
2022-12-04T17:41:42.761Z,2.35
2022-12-04T17:44:10.339Z,2.54
2022-12-04T17:46:37.958Z,2.55
2022-12-04T17:49:07.461Z,2.47
2022-12-04T17:51:35.736Z,2.39
2022-12-04T17:54:03.336Z,2.15
2022-12-04T17:56:30.973Z,2.59
2022-12-04T17:59:00.115Z,2.72
2022-12-04T18:01:30.068Z,2.61
2022-12-04T18:03:59.698Z,2.84
2022-12-04T18:06:29.386Z,2.85
2022-12-04T18:08:57.537Z,2.71
2022-12-04T18:11:27.468Z,2.72
2022-12-04T18:13:57.152Z,2.98
2022-12-04T18:16:27.449Z,2.60
2022-12-04T18:18:56.557Z,2.72
2022-12-04T18:21:24.688Z,2.80
2022-12-04T18:23:52.809Z,2.78
2022-12-04T18:26:23.626Z,2.75
2022-12-04T18:28:52.756Z,2.57
2022-12-04T18:31:20.801Z,2.95
2022-12-04T18:33:50.204Z,2.65
2022-12-04T18:36:20.363Z,3.04
2022-12-04T18:38:53.373Z,2.73
2022-12-04T18:41:46.690Z,2.62
2022-12-04T18:44:15.357Z,2.87
2022-12-04T18:46:43.577Z,2.74
2022-12-04T18:49:12.965Z,2.66
2022-12-04T18:51:46.985Z,2.98
2022-12-04T18:54:19.813Z,2.64
2022-12-04T18:56:47.808Z,2.94
2022-12-04T18:59:17.827Z,2.89
2022-12-04T19:01:45.672Z,2.77
2022-12-04T19:04:17.287Z,2.97
2022-12-04T19:06:47.041Z,2.92
2022-12-04T19:09:16.752Z,2.90
2022-12-04T19:11:45.140Z,3.12
2022-12-04T19:14:22.426Z,3.07
2022-12-04T19:16:51.456Z,3.22
2022-12-04T19:19:20.902Z,2.95
2022-12-04T19:21:48.562Z,2.73
2022-12-04T19:24:16.128Z,2.92
2022-12-04T19:26:44.874Z,2.97
2022-12-04T19:29:14.136Z,2.90
2022-12-04T19:31:42.209Z,2.87
2022-12-04T19:34:10.041Z,2.87
2022-12-04T19:36:40.232Z,2.68
2022-12-04T19:39:08.036Z,2.87
2022-12-04T19:41:37.409Z,2.99
2022-12-04T19:44:20.025Z,3.01
2022-12-04T19:46:53.398Z,2.95
2022-12-04T19:49:21.076Z,3.02
2022-12-04T19:51:50.458Z,2.95
2022-12-04T19:54:19.170Z,3.16
2022-12-04T19:56:51.125Z,3.10
2022-12-04T19:59:19.715Z,3.15
2022-12-04T20:01:47.687Z,3.11
2022-12-04T20:04:15.630Z,2.73
2022-12-04T20:06:45.727Z,2.86
2022-12-04T20:09:19.264Z,2.81
2022-12-04T20:11:47.144Z,2.71
2022-12-04T20:14:15.428Z,2.92
2022-12-04T20:16:43.213Z,2.92
2022-12-04T20:19:17.150Z,2.65
2022-12-04T20:21:46.299Z,2.84
2022-12-04T20:24:17.039Z,3.10
2022-12-04T20:26:47.073Z,2.87
2022-12-04T20:29:18.973Z,2.86
2022-12-04T20:31:47.854Z,3.01
2022-12-04T20:34:17.212Z,3.01
2022-12-04T20:36:47.164Z,3.23
2022-12-04T20:39:17.850Z,3.18
2022-12-04T20:41:46.350Z,2.95
2022-12-04T20:44:17.049Z,3.14
2022-12-04T20:46:45.277Z,2.96
2022-12-04T20:49:21.077Z,2.96
2022-12-04T20:51:50.069Z,3.10
2022-12-04T20:54:21.995Z,2.94
2022-12-04T20:56:51.992Z,2.91
2022-12-04T20:59:21.494Z,3.35
2022-12-04T21:01:49.944Z,3.17
2022-12-04T21:04:18.670Z,3.29
2022-12-04T21:06:47.576Z,3.16
2022-12-04T21:09:17.071Z,3.16
2022-12-04T21:11:47.982Z,3.12
2022-12-04T21:14:35.336Z,2.77
2022-12-04T21:17:03.509Z,2.71
2022-12-04T21:19:32.204Z,2.91
2022-12-04T21:21:59.885Z,3.12
2022-12-04T21:24:28.696Z,2.98
2022-12-04T21:26:57.757Z,3.03
2022-12-04T21:29:25.425Z,2.74
2022-12-04T21:31:53.223Z,3.02
2022-12-04T21:34:21.005Z,3.07
2022-12-04T21:36:48.706Z,3.06
2022-12-04T21:39:16.820Z,2.93
2022-12-04T21:42:02.189Z,2.92
2022-12-04T21:44:31.449Z,2.85
2022-12-04T21:46:59.356Z,3.04
2022-12-04T21:49:28.460Z,3.05
2022-12-04T21:51:58.151Z,3.00
2022-12-04T21:54:26.565Z,2.93
2022-12-04T21:56:54.487Z,2.89
2022-12-04T21:59:22.299Z,2.89
2022-12-04T22:01:52.393Z,2.96
2022-12-04T22:04:20.061Z,2.97
2022-12-04T22:06:47.661Z,2.91
2022-12-04T22:09:15.460Z,3.03
2022-12-04T22:11:43.553Z,3.03
2022-12-04T22:14:12.135Z,2.95
2022-12-04T22:16:42.436Z,2.90
2022-12-04T22:19:12.719Z,2.90
2022-12-04T22:21:40.596Z,2.76
2022-12-04T22:24:10.327Z,2.59
2022-12-04T22:26:38.928Z,2.46
2022-12-04T22:29:27.177Z,2.67
2022-12-04T22:31:54.471Z,2.50
2022-12-04T22:34:23.344Z,2.92
2022-12-04T22:36:51.158Z,2.85
2022-12-04T22:39:18.798Z,2.66
2022-12-04T22:41:46.378Z,3.06
2022-12-04T22:44:13.903Z,3.13
2022-12-04T22:46:41.531Z,3.14
2022-12-04T22:49:09.087Z,3.18
2022-12-04T22:51:37.986Z,3.01
2022-12-04T22:54:07.835Z,2.94
2022-12-04T22:56:35.418Z,2.79
2022-12-04T22:59:03.070Z,2.94
2022-12-04T23:01:32.900Z,2.88
2022-12-04T23:04:01.356Z,2.94
2022-12-04T23:06:30.843Z,2.98
2022-12-04T23:09:01.952Z,2.94
2022-12-04T23:11:29.809Z,2.79
2022-12-04T23:14:00.157Z,2.72
2022-12-04T23:16:29.432Z,3.02
2022-12-04T23:18:57.389Z,2.99
2022-12-04T23:21:25.372Z,2.75
2022-12-04T23:23:54.795Z,2.91
2022-12-04T23:26:27.819Z,2.79
2022-12-04T23:28:57.068Z,2.51
2022-12-04T23:31:25.254Z,3.01
2022-12-04T23:33:52.930Z,2.99
2022-12-04T23:36:20.809Z,2.98
2022-12-04T23:38:48.783Z,2.74
2022-12-04T23:41:18.338Z,2.84
2022-12-04T23:43:48.145Z,2.93
2022-12-04T23:46:18.245Z,3.19
2022-12-04T23:48:46.397Z,3.18
2022-12-04T23:51:17.044Z,3.18
2022-12-04T23:53:45.333Z,2.95
2022-12-04T23:56:15.810Z,3.12
2022-12-04T23:58:44.453Z,3.31
